createdAt,value
2019-04-29T04:24:23.331Z,101995.31
2019-04-29T04:33:10.468Z,101998.41
2019-04-29T04:38:29.287Z,102000.23
2019-04-29T06:02:39.896Z,102056.29
2019-04-29T06:08:04.246Z,102064.47
2019-04-29T06:13:27.777Z,102066.02
2019-04-29T06:19:04.184Z,102066.70
2019-04-29T06:24:25.470Z,102077.32
2019-04-29T06:29:54.069Z,102080.46
2019-04-29T06:35:16.434Z,102079.83
2019-04-29T06:40:42.250Z,102086.00
2019-04-29T06:46:24.839Z,102090.41
2019-04-29T06:51:36.507Z,102096.91
2019-04-29T06:56:56.495Z,102100.63
2019-04-29T07:02:17.022Z,102093.47
2019-04-29T07:07:26.569Z,102090.81
2019-04-29T07:13:10.863Z,102091.11
2019-04-29T07:18:17.630Z,102090.72
2019-04-29T07:23:43.550Z,102089.47
2019-04-29T07:28:56.771Z,102093.16
2019-04-29T07:34:40.686Z,102105.08
2019-04-29T07:39:55.569Z,102096.41
2019-04-29T07:45:03.626Z,102102.34
2019-04-29T07:50:12.458Z,102094.89
2019-04-29T07:55:12.327Z,102094.20
2019-04-29T08:00:15.972Z,102098.89
2019-04-29T08:05:16.503Z,102090.16
2019-04-29T08:10:31.363Z,102084.50
2019-04-29T08:15:43.544Z,102085.66
2019-04-29T08:23:45.324Z,102082.56
2019-04-29T08:29:02.515Z,102074.42
2019-04-29T08:36:53.693Z,102086.31
2019-04-29T08:50:47.676Z,102077.30
2019-04-29T08:55:50.466Z,102076.96
2019-04-29T09:00:59.176Z,102076.41
2019-04-29T09:06:07.685Z,102080.17
2019-04-29T09:12:50.782Z,102080.86
2019-04-29T09:18:02.074Z,102075.92
2019-04-29T09:24:25.494Z,102073.64
2019-04-29T09:29:28.324Z,102064.22
2019-04-29T09:34:27.739Z,102064.70
2019-04-29T09:41:37.006Z,102062.16
2019-04-29T09:46:47.761Z,102047.30
2019-04-29T09:52:01.910Z,102047.77
2019-04-29T09:57:25.944Z,102059.66
2019-04-29T10:02:14.920Z,102045.80
2019-04-29T10:07:07.794Z,102040.81
2019-04-29T10:12:17.612Z,102041.20
2019-04-29T10:17:56.669Z,102032.83
2019-04-29T10:23:28.422Z,102034.83
2019-04-29T10:28:15.814Z,102028.25
2019-04-29T10:33:25.388Z,102025.73
2019-04-29T10:39:07.457Z,102018.52
2019-04-29T10:44:12.543Z,102015.02
2019-04-29T10:49:41.949Z,102000.03
2019-04-29T10:56:00.818Z,102004.23
2019-04-29T11:02:23.137Z,101997.98
2019-04-29T11:07:29.181Z,101996.39
2019-04-29T11:12:35.093Z,101997.27
2019-04-29T11:17:47.798Z,101988.27
2019-04-29T11:24:38.846Z,101988.91
2019-04-29T11:29:30.527Z,101997.70
2019-04-29T11:36:16.161Z,101991.84
2019-04-29T11:42:03.355Z,101979.41
2019-04-29T11:48:14.615Z,101980.05
2019-04-29T11:54:26.290Z,101976.24
2019-04-29T12:01:13.589Z,101967.52
2019-04-29T12:08:19.390Z,101957.23
2019-04-29T12:14:05.585Z,101956.59
2019-04-29T12:19:43.366Z,101962.20
2019-04-29T12:24:44.978Z,101952.27
2019-04-29T12:30:29.754Z,101946.02
2019-04-29T12:36:09.216Z,101942.28
2019-04-29T12:41:05.086Z,101948.23
2019-04-29T12:46:20.804Z,101943.59
2019-04-29T12:54:15.590Z,101925.09
2019-04-29T12:59:03.805Z,101915.73
2019-04-29T13:04:21.284Z,101923.56
2019-04-29T13:09:36.759Z,101915.20
2019-04-29T13:15:12.511Z,101906.31
2019-04-29T13:20:18.434Z,101892.16
2019-04-29T13:25:28.463Z,101887.03
2019-04-29T13:30:35.302Z,101886.78
2019-04-29T13:35:51.673Z,101879.88
2019-04-29T13:41:23.319Z,101878.32
2019-04-29T13:46:24.943Z,101874.23
2019-04-29T13:51:38.207Z,101866.08
2019-04-29T13:57:15.776Z,101854.26
2019-04-29T14:02:37.361Z,101862.19
2019-04-29T14:07:34.123Z,101865.66
2019-04-29T14:12:49.134Z,101858.35
2019-04-29T14:17:54.866Z,101859.19
2019-04-29T14:22:44.865Z,101855.05
2019-04-29T14:27:37.526Z,101852.80
2019-04-29T14:32:50.751Z,101861.93
2019-04-29T14:38:06.256Z,101852.50
2019-04-29T14:43:37.754Z,101850.67
2019-04-29T14:48:26.697Z,101849.23
2019-04-29T14:53:27.328Z,101854.92
2019-04-29T14:59:17.130Z,101848.93
2019-04-29T15:04:20.766Z,101850.06
2019-04-29T15:09:31.125Z,101855.62
2019-04-29T15:14:32.486Z,101850.09
2019-04-29T15:19:31.835Z,101857.42
2019-04-29T15:24:35.653Z,101840.95
2019-04-29T15:29:43.115Z,101836.27
2019-04-29T15:34:50.759Z,101843.09
2019-04-29T15:40:01.962Z,101849.88
2019-04-29T15:45:01.412Z,101846.73
2019-04-29T15:50:19.016Z,101844.03
2019-04-29T15:55:09.247Z,101845.14
2019-04-29T16:05:32.311Z,101842.82
2019-04-29T16:10:39.413Z,101844.30
2019-04-29T16:15:45.966Z,101842.58
2019-04-29T16:20:35.874Z,101841.70
2019-04-29T16:25:55.597Z,101843.63
2019-04-29T16:30:53.467Z,101843.14
2019-04-29T16:36:08.586Z,101842.22
2019-04-29T16:41:21.737Z,101844.27
2019-04-29T16:46:45.043Z,101844.56
2019-04-29T16:51:47.761Z,101850.77
2019-04-29T16:56:46.354Z,101849.55
2019-04-29T17:01:48.519Z,101853.97
2019-04-29T17:07:14.089Z,101849.45
2019-04-29T17:12:00.951Z,101848.16
2019-04-29T17:16:56.184Z,101847.27
2019-04-29T17:21:52.799Z,101844.75
2019-04-29T17:26:46.760Z,101851.16
2019-04-29T17:32:03.132Z,101855.34
2019-04-29T17:36:56.175Z,101855.12
2019-04-29T17:41:58.877Z,101856.34
2019-04-29T17:46:52.928Z,101854.05
2019-04-29T17:51:47.484Z,101847.42
2019-04-29T17:56:49.078Z,101851.61
2019-04-29T18:01:48.429Z,101850.09
2019-04-29T18:06:42.396Z,101854.22
2019-04-29T18:11:57.768Z,101857.73
2019-04-29T18:16:51.111Z,101855.28
2019-04-29T18:21:49.162Z,101865.16
2019-04-29T18:26:53.290Z,101866.98
2019-04-29T18:32:00.451Z,101870.63
2019-04-29T18:37:02.662Z,101874.22
2019-04-29T18:42:07.301Z,101882.76
2019-04-29T18:47:22.760Z,101888.39
2019-04-29T18:52:29.802Z,101889.78
2019-04-29T18:57:31.884Z,101893.08
2019-04-29T19:02:32.632Z,101889.13
2019-04-29T19:07:52.347Z,101901.39
2019-04-29T19:12:41.145Z,101902.18
2019-04-29T19:18:05.448Z,101910.25
2019-04-29T19:23:11.268Z,101909.04
2019-04-29T19:28:34.623Z,101914.94
2019-04-29T19:33:43.853Z,101914.37
2019-04-29T19:38:36.916Z,101914.50
2019-04-29T19:43:39.929Z,101920.12
2019-04-29T19:48:41.705Z,101932.24
2019-04-29T19:53:51.357Z,101934.22
2019-04-29T19:58:57.823Z,101933.88
2019-04-29T20:04:23.435Z,101938.48
2019-04-29T20:09:30.429Z,101943.20
2019-04-29T20:14:41.675Z,101942.66
2019-04-29T20:20:01.743Z,101946.09
2019-04-29T20:25:09.385Z,101939.57
2019-04-29T20:30:23.278Z,101942.28
2019-04-29T20:35:30.781Z,101944.12
2019-04-29T20:40:47.680Z,101936.23
2019-04-29T20:46:05.812Z,101944.66
2019-04-29T20:51:18.759Z,101949.33
2019-04-29T20:56:37.163Z,101948.63
2019-04-29T21:01:46.703Z,101949.42
2019-04-29T21:07:03.831Z,101948.39
2019-04-29T21:12:21.533Z,101953.30
2019-04-29T21:17:40.232Z,101960.55
2019-04-29T21:23:02.637Z,101955.78
2019-04-29T21:28:13.282Z,101957.28
2019-04-29T21:33:23.301Z,101959.50
2019-04-29T21:38:36.990Z,101957.56
2019-04-29T21:43:55.506Z,101949.72
2019-04-29T21:49:15.469Z,101950.67
2019-04-29T21:54:26.918Z,101946.77
2019-04-29T21:59:37.458Z,101949.91
2019-04-29T22:04:48.842Z,101952.30
2019-04-29T22:10:38.378Z,101955.09
2019-04-29T22:15:48.329Z,101960.86
2019-04-29T22:21:00.629Z,101956.12
2019-04-29T22:26:16.254Z,101953.22
2019-04-29T22:31:39.162Z,101950.75
2019-04-29T22:37:01.997Z,101953.19
2019-04-29T22:42:10.458Z,101954.63
2019-04-29T22:47:26.271Z,101956.98
2019-04-29T22:52:47.066Z,101959.79
2019-04-29T22:58:10.872Z,101953.20
2019-04-29T23:03:27.534Z,101950.44
2019-04-29T23:08:39.763Z,101951.95
2019-04-29T23:13:50.747Z,101944.75
2019-04-29T23:19:18.619Z,101942.44
2019-04-29T23:24:27.844Z,101941.28
2019-04-29T23:29:45.515Z,101938.75
2019-04-29T23:35:10.779Z,101935.72
2019-04-29T23:40:27.878Z,101931.05
2019-04-29T23:45:46.650Z,101931.87
2019-04-29T23:51:05.773Z,101919.41
2019-04-29T23:56:17.579Z,101919.06
